Time;durP1;ratioP1;P1;durP2;ratioP2;P2;SDS_P1;SDS_P2;PMS_P1;PMS_P2;Temp;Humidity;BMP_temperature;BMP_pressure;BME280_temperature;BME280_humidity;BME280_pressure;Samples;Min_cycle;Max_cycle;Signal;HPM_P1;HPM_P2
2022/12/14 00:01:21;;;;;;;21.10;12.57;;;-3.20;99.90;;;;;;5046593;28;20646;-68
2022/12/14 00:03:47;;;;;;;24.47;13.80;;;-3.20;99.90;;;;;;5046175;28;20225;-68
2022/12/14 00:06:15;;;;;;;20.00;11.83;;;-3.20;99.90;;;;;;5043177;28;20194;-69
2022/12/14 00:08:41;;;;;;;27.47;12.53;;;-3.40;99.90;;;;;;5052327;28;20201;-69
2022/12/14 00:11:08;;;;;;;26.23;12.50;;;-3.50;99.90;;;;;;5049495;28;20693;-68
2022/12/14 00:13:34;;;;;;;20.53;11.37;;;-3.30;99.90;;;;;;5049733;28;20202;-69
2022/12/14 00:16:05;;;;;;;22.83;11.93;;;-3.40;99.90;;;;;;5052096;28;20262;-67
2022/12/14 00:18:30;;;;;;;24.23;12.47;;;-3.50;99.90;;;;;;5051067;28;20230;-68
2022/12/14 00:21:05;;;;;;;24.70;12.50;;;-3.40;99.90;;;;;;5048999;28;20183;-67
2022/12/14 00:23:31;;;;;;;22.77;12.20;;;-3.50;99.90;;;;;;5046680;28;20242;-68
2022/12/14 00:25:57;;;;;;;22.70;11.83;;;-3.40;99.90;;;;;;5045694;28;20203;-68
2022/12/14 00:28:23;;;;;;;23.57;12.60;;;-3.60;99.90;;;;;;5050006;28;20272;-68
2022/12/14 00:30:54;;;;;;;23.87;12.07;;;-3.50;99.90;;;;;;5053068;28;20261;-67
2022/12/14 00:33:20;;;;;;;20.20;12.03;;;-3.60;99.90;;;;;;5049576;28;20186;-69
2022/12/14 00:35:45;;;;;;;23.30;11.93;;;-3.40;99.90;;;;;;5050798;28;20178;-68
2022/12/14 00:38:11;;;;;;;22.73;12.47;;;-3.50;99.90;;;;;;5050408;28;20214;-68
2022/12/14 00:40:37;;;;;;;25.73;12.80;;;-3.50;99.90;;;;;;5048654;28;20285;-69
2022/12/14 00:43:02;;;;;;;18.90;11.77;;;-3.50;99.90;;;;;;5051634;28;20214;-68
2022/12/14 00:45:28;;;;;;;20.17;11.90;;;-3.60;99.90;;;;;;5050637;28;20255;-68
2022/12/14 00:47:55;;;;;;;23.13;12.23;;;-3.60;99.90;;;;;;5049596;28;20261;-67
2022/12/14 00:50:21;;;;;;;24.80;12.73;;;-3.70;99.90;;;;;;5047880;28;20219;-68
2022/12/14 00:52:46;;;;;;;21.13;11.70;;;-3.70;99.90;;;;;;5047683;28;20575;-69
2022/12/14 00:55:12;;;;;;;24.97;12.93;;;-3.80;99.90;;;;;;5048536;28;20775;-68
2022/12/14 00:57:37;;;;;;;21.67;11.97;;;-3.70;99.90;;;;;;5049323;28;20225;-69
2022/12/14 01:00:04;;;;;;;27.63;14.17;;;-3.50;99.90;;;;;;5044353;28;20222;-68
2022/12/14 01:02:30;;;;;;;23.27;13.17;;;-3.70;99.90;;;;;;5051063;28;20214;-69
2022/12/14 01:04:55;;;;;;;25.27;13.57;;;-3.50;99.90;;;;;;5048404;28;20632;-68
2022/12/14 01:07:21;;;;;;;24.43;13.57;;;-3.50;99.90;;;;;;5046523;28;20219;-69
2022/12/14 01:09:47;;;;;;;22.67;12.97;;;-3.70;99.90;;;;;;5050190;28;20221;-69
2022/12/14 01:12:12;;;;;;;21.03;12.80;;;-3.70;99.90;;;;;;5046514;28;20192;-68
2022/12/14 01:14:38;;;;;;;28.53;14.13;;;-3.60;99.90;;;;;;5046284;28;20681;-67
2022/12/14 01:17:05;;;;;;;25.60;14.03;;;-3.70;99.90;;;;;;5049708;28;20257;-67
2022/12/14 01:19:31;;;;;;;22.27;12.00;;;-3.80;99.90;;;;;;5045722;28;20238;-67
2022/12/14 01:21:57;;;;;;;24.43;13.93;;;-3.80;99.90;;;;;;5048118;28;20238;-67
2022/12/14 01:24:23;;;;;;;25.63;14.13;;;-3.80;99.90;;;;;;5048592;28;20307;-69
2022/12/14 01:26:49;;;;;;;25.37;13.83;;;-3.80;99.90;;;;;;5046459;28;20806;-68
2022/12/14 01:29:15;;;;;;;28.57;15.10;;;-3.80;99.90;;;;;;5048339;28;20634;-68
2022/12/14 01:31:41;;;;;;;33.33;15.63;;;-3.90;99.90;;;;;;5048685;28;20207;-68
2022/12/14 01:34:08;;;;;;;29.27;15.30;;;-3.80;99.90;;;;;;5045423;28;20251;-68
2022/12/14 01:36:35;;;;;;;28.67;14.27;;;-3.90;99.90;;;;;;5050664;28;20216;-69
2022/12/14 01:39:09;;;;;;;29.23;15.20;;;-4.00;99.90;;;;;;5047721;28;20304;-69
2022/12/14 01:41:48;;;;;;;27.30;14.73;;;-3.90;99.90;;;;;;5050220;28;20699;-68
2022/12/14 01:44:13;;;;;;;26.20;14.90;;;-4.00;99.90;;;;;;5047753;28;20222;-67
2022/12/14 01:46:42;;;;;;;24.17;14.93;;;-4.10;99.90;;;;;;5045888;28;20741;-68
2022/12/14 01:49:11;;;;;;;27.20;15.17;;;-4.00;99.90;;;;;;5048160;28;20221;-67
2022/12/14 01:51:39;;;;;;;32.97;16.40;;;-4.10;99.90;;;;;;5048195;28;20238;-68
2022/12/14 01:54:07;;;;;;;32.67;17.07;;;-4.10;99.90;;;;;;5045994;28;20192;-68
2022/12/14 01:56:37;;;;;;;27.83;15.90;;;-4.10;99.90;;;;;;5046320;28;20214;-68
2022/12/14 01:59:07;;;;;;;30.70;15.00;;;-4.20;99.90;;;;;;5046780;28;20224;-68
2022/12/14 02:01:33;;;;;;;27.53;14.73;;;-4.10;99.90;;;;;;5046500;28;20289;-68
2022/12/14 02:03:59;;;;;;;26.00;15.20;;;-4.20;99.90;;;;;;5048848;28;20325;-68
2022/12/14 02:06:29;;;;;;;26.87;15.73;;;-4.10;99.90;;;;;;5043121;28;20706;-68
2022/12/14 02:08:56;;;;;;;27.07;15.00;;;-4.20;99.90;;;;;;5047912;28;20190;-69
2022/12/14 02:11:51;;;;;;;28.07;15.07;;;-4.20;99.90;;;;;;5046939;28;20206;-68
2022/12/14 02:14:16;;;;;;;27.43;17.07;;;-4.30;99.90;;;;;;5043818;28;20239;-67
2022/12/14 02:16:42;;;;;;;26.83;15.50;;;-4.30;99.90;;;;;;5049519;28;20237;-68
2022/12/14 02:19:08;;;;;;;24.67;13.67;;;-4.20;99.90;;;;;;5044160;28;20222;-67
2022/12/14 02:22:07;;;;;;;29.93;15.03;;;-4.20;99.90;;;;;;5045588;28;20658;-69
2022/12/14 02:24:42;;;;;;;28.87;15.90;;;-4.10;99.90;;;;;;5048405;28;20260;-68
2022/12/14 02:27:25;;;;;;;30.00;15.13;;;-4.30;99.90;;;;;;5043575;28;20205;-69
2022/12/14 02:30:17;;;;;;;31.80;15.20;;;-4.20;99.90;;;;;;5045810;28;20217;-68
2022/12/14 02:33:14;;;;;;;30.13;15.57;;;-4.20;99.90;;;;;;5043924;28;20217;-68
2022/12/14 02:36:00;;;;;;;25.07;15.33;;;-4.30;99.90;;;;;;5044596;28;20212;-67
2022/12/14 02:38:40;;;;;;;25.80;15.40;;;-4.40;99.90;;;;;;5045591;28;20836;-69
2022/12/14 02:41:49;;;;;;;26.50;14.67;;;-4.30;99.90;;;;;;5042676;28;20209;-67
2022/12/14 02:44:33;;;;;;;24.00;14.43;;;-4.40;99.90;;;;;;5026189;28;20222;-68
2022/12/14 02:47:13;;;;;;;26.57;14.93;;;-4.40;99.90;;;;;;5044082;28;20243;-67
2022/12/14 02:50:01;;;;;;;27.33;15.60;;;-4.40;99.90;;;;;;5044848;28;20731;-69
2022/12/14 02:52:41;;;;;;;27.67;14.70;;;-4.30;99.90;;;;;;5044178;28;20206;-67
2022/12/14 02:55:44;;;;;;;27.80;15.87;;;-4.30;99.90;;;;;;5044235;28;20210;-68
2022/12/14 02:58:39;;;;;;;29.33;14.80;;;-4.30;99.90;;;;;;5045454;28;20233;-69
2022/12/14 03:01:10;;;;;;;33.10;16.10;;;-4.40;99.90;;;;;;5041287;28;20271;-68
2022/12/14 03:03:36;;;;;;;31.63;15.77;;;-4.40;99.90;;;;;;5040906;28;20249;-69
2022/12/14 03:06:13;;;;;;;27.50;15.07;;;-4.40;99.90;;;;;;5045568;28;20175;-68
2022/12/14 03:08:41;;;;;;;27.33;15.50;;;-4.60;99.90;;;;;;5046475;28;20618;-69
2022/12/14 03:11:22;;;;;;;26.17;14.03;;;-4.60;99.90;;;;;;5048769;28;20621;-68
2022/12/14 03:13:56;;;;;;;30.13;15.47;;;-4.50;99.90;;;;;;5044082;28;20209;-68
2022/12/14 03:16:29;;;;;;;29.00;15.53;;;-4.70;99.90;;;;;;5048768;28;20256;-68
2022/12/14 03:19:29;;;;;;;27.30;15.20;;;-4.60;99.90;;;;;;5047058;28;20218;-68
2022/12/14 03:22:08;;;;;;;28.57;15.30;;;-4.60;99.90;;;;;;5039407;28;20212;-68
2022/12/14 03:24:42;;;;;;;28.60;14.50;;;-4.50;99.90;;;;;;5045679;28;20226;-66
2022/12/14 03:27:18;;;;;;;25.13;14.77;;;-4.60;99.90;;;;;;5040094;28;20189;-68
2022/12/14 03:29:52;;;;;;;27.40;15.10;;;-4.40;99.90;;;;;;5045764;28;20220;-68
2022/12/14 03:32:25;;;;;;;27.20;15.00;;;-4.70;99.90;;;;;;5050397;28;20205;-68
2022/12/14 03:35:31;;;;;;;27.63;15.43;;;-4.70;99.90;;;;;;5041676;28;20293;-68
2022/12/14 03:38:08;;;;;;;27.90;15.03;;;-4.70;99.90;;;;;;5046129;28;20204;-68
2022/12/14 03:40:55;;;;;;;30.23;15.87;;;-4.80;99.90;;;;;;5041116;28;20214;-66
2022/12/14 03:43:35;;;;;;;25.70;14.80;;;-4.70;99.90;;;;;;5047017;28;20296;-68
2022/12/14 03:46:36;;;;;;;29.27;15.37;;;-4.70;99.90;;;;;;5046428;28;20220;-68
2022/12/14 03:49:18;;;;;;;28.87;16.13;;;-4.80;99.90;;;;;;4999040;28;20223;-68
2022/12/14 03:52:04;;;;;;;26.93;14.53;;;-4.80;99.90;;;;;;5046614;28;20205;-68
2022/12/14 03:54:52;;;;;;;29.73;17.00;;;-4.90;99.90;;;;;;5042237;28;20220;-67
2022/12/14 03:57:29;;;;;;;26.40;15.17;;;-4.90;99.90;;;;;;5037292;28;20183;-68
2022/12/14 04:00:00;;;;;;;28.13;16.07;;;-4.90;99.90;;;;;;5041735;28;20245;-68
2022/12/14 04:02:34;;;;;;;31.13;16.07;;;-4.90;99.90;;;;;;5049803;28;20621;-68
2022/12/14 04:05:04;;;;;;;25.70;14.27;;;-4.90;99.90;;;;;;5045949;28;20213;-66
2022/12/14 04:07:40;;;;;;;24.10;14.33;;;-4.80;99.90;;;;;;5049888;28;20293;-68
2022/12/14 04:18:58;;;;;;;28.77;15.23;;;-4.90;99.90;;;;;;5047164;28;20338;-68
2022/12/14 04:21:35;;;;;;;30.67;16.77;;;-5.00;99.90;;;;;;5045050;28;20176;-67
2022/12/14 04:27:01;;;;;;;32.57;16.67;;;-5.00;99.90;;;;;;5025802;28;20707;-67
2022/12/14 04:32:22;;;;;;;29.33;16.30;;;-5.10;99.90;;;;;;5028028;28;20311;-67
2022/12/14 04:34:53;;;;;;;32.07;16.80;;;-5.10;99.90;;;;;;5025944;28;20296;-68
2022/12/14 04:37:23;;;;;;;34.33;15.57;;;-5.20;99.90;;;;;;5027464;28;20359;-68
2022/12/14 04:39:56;;;;;;;31.07;16.73;;;-5.30;99.90;;;;;;5028627;28;20222;-67
2022/12/14 04:42:28;;;;;;;30.03;17.57;;;-5.40;99.90;;;;;;5026832;28;20602;-66
2022/12/14 04:45:05;;;;;;;30.10;16.30;;;-5.40;99.90;;;;;;5030245;28;20232;-66
2022/12/14 04:47:37;;;;;;;29.90;16.30;;;-5.40;99.90;;;;;;5025349;28;20213;-68
2022/12/14 04:50:18;;;;;;;29.80;16.17;;;-5.40;99.90;;;;;;5026392;23;20233;-68
2022/12/14 04:53:06;;;;;;;31.17;17.37;;;-5.50;99.90;;;;;;4996464;28;20214;-69
2022/12/14 04:55:45;;;;;;;29.17;17.50;;;-5.50;99.90;;;;;;4996928;28;20230;-69
2022/12/14 04:58:18;;;;;;;31.37;17.00;;;-5.50;99.90;;;;;;4997065;28;20287;-68
2022/12/14 05:01:35;;;;;;;32.90;18.77;;;-5.60;99.90;;;;;;4977676;28;20425;-69
2022/12/14 05:04:24;;;;;;;30.60;17.07;;;-5.50;99.90;;;;;;4950970;29;20733;-68
2022/12/14 05:07:16;;;;;;;30.43;16.73;;;-5.50;99.90;;;;;;4950734;29;20271;-68
2022/12/14 05:09:48;;;;;;;32.80;16.07;;;-5.40;99.90;;;;;;4962466;28;20617;-69
2022/12/14 05:12:20;;;;;;;27.03;15.40;;;-5.40;99.90;;;;;;4979468;28;20171;-69
2022/12/14 05:14:48;;;;;;;33.57;17.00;;;-5.50;99.90;;;;;;4984115;28;20206;-69
2022/12/14 05:17:14;;;;;;;26.50;15.23;;;-5.40;99.90;;;;;;4976042;28;20261;-69
2022/12/14 05:19:45;;;;;;;31.40;15.80;;;-5.40;99.90;;;;;;4981671;28;20281;-70
2022/12/14 05:22:10;;;;;;;28.63;15.70;;;-5.50;99.90;;;;;;4975295;28;20210;-68
2022/12/14 05:24:36;;;;;;;34.60;16.50;;;-5.50;99.90;;;;;;4978684;28;20729;-69
2022/12/14 05:27:02;;;;;;;28.57;16.03;;;-5.40;99.90;;;;;;4977302;28;20614;-69
2022/12/14 05:29:27;;;;;;;28.70;16.30;;;-5.40;99.90;;;;;;4974793;28;20220;-69
2022/12/14 05:31:53;;;;;;;30.33;17.73;;;-5.40;99.90;;;;;;4980768;28;20204;-67
2022/12/14 05:34:19;;;;;;;32.27;17.07;;;-5.50;99.90;;;;;;4980390;28;20759;-69
2022/12/14 05:36:45;;;;;;;29.50;16.23;;;-5.50;99.90;;;;;;4985648;28;20224;-69
2022/12/14 05:39:11;;;;;;;31.27;16.37;;;-5.40;99.90;;;;;;4994478;28;20207;-71
2022/12/14 05:41:37;;;;;;;28.97;15.80;;;-5.40;99.90;;;;;;4977694;28;20551;-69
2022/12/14 05:44:02;;;;;;;31.63;16.40;;;-5.30;99.90;;;;;;4978217;28;20202;-69
2022/12/14 05:46:28;;;;;;;33.07;16.53;;;-5.30;99.90;;;;;;4980351;28;20294;-69
2022/12/14 05:48:54;;;;;;;30.57;15.73;;;-5.30;99.90;;;;;;4977416;28;20247;-70
2022/12/14 05:51:19;;;;;;;29.70;15.50;;;-5.30;99.90;;;;;;4975270;28;20214;-69
2022/12/14 05:53:45;;;;;;;24.73;15.20;;;-5.30;99.90;;;;;;4983202;28;20207;-68
2022/12/14 05:56:11;;;;;;;25.80;15.63;;;-5.40;99.90;;;;;;4974643;28;20736;-68
2022/12/14 05:58:38;;;;;;;30.43;16.77;;;-5.40;99.90;;;;;;4976252;28;20366;-68
2022/12/14 06:01:07;;;;;;;29.27;15.33;;;-5.40;99.90;;;;;;4981143;28;20206;-70
2022/12/14 06:03:32;;;;;;;27.67;14.83;;;-5.30;99.90;;;;;;4975382;28;20833;-69
2022/12/14 06:06:06;;;;;;;32.37;16.93;;;-5.20;99.90;;;;;;4981017;28;20287;-68
2022/12/14 06:08:36;;;;;;;30.53;16.40;;;-5.30;99.90;;;;;;4991820;28;20204;-69
2022/12/14 06:11:13;;;;;;;28.63;15.30;;;-5.30;99.90;;;;;;4992083;28;20827;-69
2022/12/14 06:13:40;;;;;;;31.60;15.93;;;-5.30;99.90;;;;;;4998124;28;20581;-68
2022/12/14 06:16:13;;;;;;;27.77;15.77;;;-5.30;99.90;;;;;;4993370;28;20206;-72
2022/12/14 06:18:50;;;;;;;32.20;16.33;;;-5.40;99.90;;;;;;5001650;28;20298;-70
2022/12/14 06:21:18;;;;;;;26.03;14.43;;;-5.40;99.90;;;;;;4998194;28;20236;-70
2022/12/14 06:23:44;;;;;;;32.20;15.40;;;-5.30;99.90;;;;;;4992399;28;20173;-70
2022/12/14 06:26:10;;;;;;;27.73;16.20;;;-5.40;99.90;;;;;;4998563;28;20212;-70
2022/12/14 06:28:37;;;;;;;30.30;16.43;;;-5.40;99.90;;;;;;4998069;28;20220;-70
2022/12/14 06:31:03;;;;;;;28.17;15.80;;;-5.40;99.90;;;;;;4997606;28;20844;-69
2022/12/14 06:33:31;;;;;;;31.37;15.73;;;-5.40;99.90;;;;;;4999873;28;20216;-69
2022/12/14 06:35:57;;;;;;;28.10;16.33;;;-5.40;99.90;;;;;;4989330;28;20265;-69
2022/12/14 06:38:22;;;;;;;26.77;15.53;;;-5.40;99.90;;;;;;4996862;28;20202;-68
2022/12/14 06:40:48;;;;;;;26.80;15.67;;;-5.40;99.90;;;;;;4998571;28;20648;-69
2022/12/14 06:43:14;;;;;;;33.30;15.80;;;-5.40;99.90;;;;;;4990990;28;20212;-69
2022/12/14 06:45:39;;;;;;;25.43;14.63;;;-5.30;99.90;;;;;;4999505;28;20211;-68
2022/12/14 06:48:05;;;;;;;25.60;15.47;;;-5.30;99.90;;;;;;4996858;28;20593;-69
2022/12/14 06:50:31;;;;;;;26.87;14.93;;;-5.40;99.90;;;;;;4994616;28;20221;-69
2022/12/14 06:52:57;;;;;;;27.73;15.30;;;-5.30;99.90;;;;;;4996308;28;20202;-69
2022/12/14 06:55:24;;;;;;;28.23;14.80;;;-5.30;99.90;;;;;;4993040;28;20277;-70
2022/12/14 06:57:51;;;;;;;29.60;15.03;;;-5.40;99.90;;;;;;4992427;28;20303;-70
2022/12/14 07:00:21;;;;;;;33.67;15.80;;;-5.40;99.90;;;;;;4995493;28;20271;-69
2022/12/14 07:02:47;;;;;;;27.70;14.90;;;-5.40;99.90;;;;;;4997323;28;20265;-69
2022/12/14 07:05:13;;;;;;;26.00;14.50;;;-5.40;99.90;;;;;;4994219;28;20226;-70
2022/12/14 07:07:39;;;;;;;27.70;15.20;;;-5.40;99.90;;;;;;5000022;28;20317;-69
2022/12/14 07:10:07;;;;;;;31.33;16.47;;;-5.40;99.90;;;;;;4994849;28;20306;-69
2022/12/14 07:12:33;;;;;;;29.03;14.00;;;-5.30;99.90;;;;;;4999051;28;20214;-70
2022/12/14 07:14:58;;;;;;;25.40;14.03;;;-5.30;99.90;;;;;;4996977;28;20241;-69
2022/12/14 07:17:24;;;;;;;29.33;16.13;;;-5.30;99.90;;;;;;4992572;28;20413;-70
2022/12/14 07:19:49;;;;;;;32.37;15.00;;;-5.20;99.90;;;;;;4996615;28;20715;-70
2022/12/14 07:22:15;;;;;;;24.03;13.73;;;-5.30;99.90;;;;;;4994881;28;20209;-70
2022/12/14 07:24:42;;;;;;;26.50;15.30;;;-5.30;99.90;;;;;;4997348;28;20216;-69
2022/12/14 07:27:07;;;;;;;28.13;14.70;;;-5.20;99.90;;;;;;4997134;28;20240;-70
2022/12/14 07:29:33;;;;;;;25.77;14.50;;;-5.30;99.90;;;;;;4996980;28;20218;-69
2022/12/14 07:31:59;;;;;;;26.00;14.07;;;-5.30;99.90;;;;;;4997306;28;20211;-68
2022/12/14 07:34:25;;;;;;;26.13;13.70;;;-5.30;99.90;;;;;;5000342;28;20277;-70
2022/12/14 07:36:52;;;;;;;26.37;14.27;;;-5.40;99.90;;;;;;4992173;28;20213;-69
2022/12/14 07:39:19;;;;;;;27.43;14.13;;;-5.40;99.90;;;;;;4993977;28;20223;-69
2022/12/14 07:41:46;;;;;;;24.53;13.60;;;-5.40;99.90;;;;;;4999545;28;20196;-69
2022/12/14 07:44:12;;;;;;;28.10;14.63;;;-5.40;99.90;;;;;;4995076;28;20901;-70
2022/12/14 07:46:39;;;;;;;25.43;13.47;;;-5.30;99.90;;;;;;5000327;28;20224;-70
2022/12/14 07:49:05;;;;;;;27.10;14.27;;;-5.30;99.90;;;;;;4995564;28;20377;-68
2022/12/14 07:51:36;;;;;;;32.40;14.70;;;-5.30;99.90;;;;;;4991307;28;20553;-69
2022/12/14 07:54:04;;;;;;;27.00;14.80;;;-5.20;99.90;;;;;;4977595;28;20207;-70
2022/12/14 07:56:33;;;;;;;26.47;14.87;;;-5.20;99.90;;;;;;4972918;28;20208;-70
2022/12/14 07:59:00;;;;;;;25.80;13.87;;;-5.30;99.90;;;;;;4977337;28;20286;-69
2022/12/14 08:01:29;;;;;;;28.43;15.07;;;-5.20;99.90;;;;;;4980146;28;20202;-69
2022/12/14 08:04:04;;;;;;;25.87;14.00;;;-5.20;99.90;;;;;;4977147;28;20227;-70
2022/12/14 08:06:30;;;;;;;25.80;13.80;;;-5.10;99.90;;;;;;4980513;28;20220;-69
2022/12/14 08:08:57;;;;;;;25.23;14.00;;;-5.10;99.90;;;;;;4973988;28;20199;-71
2022/12/14 08:11:23;;;;;;;29.13;14.77;;;-5.00;99.90;;;;;;4972062;28;20231;-70
2022/12/14 08:13:54;;;;;;;33.27;16.60;;;-5.00;99.90;;;;;;4979369;28;20593;-67
2022/12/14 08:16:19;;;;;;;26.20;14.37;;;-5.00;99.90;;;;;;4970658;28;20220;-69
2022/12/14 08:18:45;;;;;;;24.60;13.53;;;-5.10;99.90;;;;;;4981461;28;20223;-71
2022/12/14 08:21:11;;;;;;;25.97;13.40;;;-5.00;99.90;;;;;;4978383;28;20215;-70
2022/12/14 08:23:37;;;;;;;25.97;12.93;;;-5.00;99.90;;;;;;4974912;28;20193;-69
2022/12/14 08:26:05;;;;;;;26.07;13.43;;;-5.00;99.90;;;;;;4982457;28;20345;-68
2022/12/14 08:28:32;;;;;;;23.50;13.43;;;-4.90;99.90;;;;;;4982923;28;20215;-68
2022/12/14 08:31:21;;;;;;;23.57;13.93;;;-4.90;99.90;;;;;;4974326;28;20208;-68
2022/12/14 08:33:48;;;;;;;24.70;14.27;;;-4.80;99.90;;;;;;4979339;28;20317;-69
2022/12/14 08:36:15;;;;;;;24.93;14.10;;;-4.70;99.90;;;;;;4978472;28;20189;-69
2022/12/14 08:38:41;;;;;;;26.07;13.63;;;-4.50;99.90;;;;;;4982830;28;20199;-69
2022/12/14 08:41:11;;;;;;;26.23;13.73;;;-4.40;99.90;;;;;;4980725;28;20208;-69
2022/12/14 08:43:39;;;;;;;25.37;14.27;;;-4.30;99.90;;;;;;4979847;28;20295;-68
2022/12/14 08:46:04;;;;;;;22.80;13.30;;;-4.20;99.90;;;;;;4976064;28;20213;-69
2022/12/14 08:48:30;;;;;;;24.77;13.67;;;-4.00;99.90;;;;;;4983753;28;20217;-69
2022/12/14 08:51:07;;;;;;;25.07;14.23;;;-4.00;99.90;;;;;;4974170;28;20641;-68
2022/12/14 08:53:33;;;;;;;23.97;13.37;;;-3.80;99.90;;;;;;4981567;28;20207;-69
2022/12/14 08:56:07;;;;;;;23.10;12.83;;;-3.70;99.90;;;;;;4983112;28;20213;-69
2022/12/14 08:58:35;;;;;;;31.03;13.20;;;-3.60;99.90;;;;;;4977093;28;20209;-68
2022/12/14 09:01:05;;;;;;;27.03;13.53;;;-3.60;99.90;;;;;;4977369;28;20236;-68
2022/12/14 09:03:31;;;;;;;23.77;13.77;;;-3.80;99.90;;;;;;4979179;28;20215;-70
2022/12/14 09:06:05;;;;;;;24.97;13.33;;;-3.80;99.90;;;;;;4978106;28;20188;-67
2022/12/14 09:08:31;;;;;;;20.80;12.07;;;-3.90;99.90;;;;;;4978657;28;20687;-70
2022/12/14 09:10:58;;;;;;;22.80;13.23;;;-4.00;99.90;;;;;;4976854;28;20231;-67
2022/12/14 09:13:23;;;;;;;22.30;13.33;;;-3.90;99.90;;;;;;4978548;28;20218;-69
2022/12/14 09:16:01;;;;;;;26.93;14.23;;;-4.00;99.90;;;;;;4980642;28;20379;-70
2022/12/14 09:18:27;;;;;;;23.73;14.27;;;-3.90;99.90;;;;;;4975236;28;20193;-68
2022/12/14 09:20:54;;;;;;;26.03;14.87;;;-3.90;99.90;;;;;;4980876;28;20796;-68
2022/12/14 09:23:24;;;;;;;26.77;14.67;;;-3.90;99.90;;;;;;4977141;28;20588;-68
2022/12/14 09:26:06;;;;;;;25.83;15.07;;;-3.90;99.90;;;;;;4978543;28;20208;-69
2022/12/14 09:28:35;;;;;;;24.10;13.93;;;-3.90;99.90;;;;;;4977928;28;20265;-68
2022/12/14 09:31:04;;;;;;;25.00;13.40;;;-3.90;99.90;;;;;;4975732;28;20228;-68
2022/12/14 09:33:30;;;;;;;27.67;14.47;;;-3.90;99.90;;;;;;4979086;28;20678;-68
2022/12/14 09:36:16;;;;;;;23.80;13.03;;;-3.80;99.90;;;;;;4979937;28;20181;-68
2022/12/14 09:38:43;;;;;;;23.23;13.87;;;-3.80;99.90;;;;;;4976114;28;20208;-68
2022/12/14 09:41:35;;;;;;;23.97;13.20;;;-3.90;99.90;;;;;;4976291;28;20316;-69
2022/12/14 09:44:00;;;;;;;24.93;14.37;;;-3.80;99.90;;;;;;4975504;28;20217;-67
2022/12/14 09:46:34;;;;;;;29.67;14.33;;;-3.80;99.90;;;;;;4976037;28;20271;-69
2022/12/14 09:49:01;;;;;;;26.13;13.63;;;-3.80;99.90;;;;;;4978351;28;20237;-68
2022/12/14 09:51:35;;;;;;;29.20;14.83;;;-3.70;99.90;;;;;;4974487;28;20682;-68
2022/12/14 09:54:14;;;;;;;21.03;13.23;;;-3.60;99.90;;;;;;4976292;28;20205;-68
2022/12/14 09:56:40;;;;;;;22.57;13.43;;;-3.60;99.90;;;;;;4999945;28;20354;-68
2022/12/14 09:59:13;;;;;;;24.13;14.07;;;-3.50;99.90;;;;;;4991896;28;20263;-68
2022/12/14 10:01:53;;;;;;;25.63;12.97;;;-3.50;99.90;;;;;;4995663;28;20609;-68
2022/12/14 10:04:22;;;;;;;23.80;13.23;;;-3.40;99.90;;;;;;4997114;28;20225;-68
2022/12/14 10:06:56;;;;;;;24.37;13.93;;;-3.50;99.90;;;;;;4998049;28;20211;-68
2022/12/14 10:09:32;;;;;;;24.07;12.83;;;-3.50;99.90;;;;;;4999959;28;20203;-68
2022/12/14 10:12:16;;;;;;;26.93;14.03;;;-3.40;99.90;;;;;;5007616;28;20184;-68
2022/12/14 10:14:57;;;;;;;21.90;13.63;;;-3.40;99.90;;;;;;4997512;28;20237;-69
2022/12/14 10:17:33;;;;;;;24.03;13.77;;;-3.30;99.90;;;;;;4996149;28;20296;-69
2022/12/14 10:20:27;;;;;;;22.30;13.17;;;-3.20;99.90;;;;;;4998352;28;20217;-68
2022/12/14 10:22:53;;;;;;;25.87;14.13;;;-3.10;99.90;;;;;;4998866;28;20691;-68
2022/12/14 10:25:25;;;;;;;25.40;13.50;;;-3.00;99.90;;;;;;4999172;28;20206;-69
2022/12/14 10:28:05;;;;;;;23.70;13.27;;;-2.90;99.90;;;;;;4997555;28;20216;-68
2022/12/14 10:30:31;;;;;;;23.27;13.17;;;-2.70;99.90;;;;;;5001153;28;20304;-67
2022/12/14 10:33:18;;;;;;;22.80;13.27;;;-2.80;99.90;;;;;;4993417;28;20654;-68
2022/12/14 10:35:53;;;;;;;22.17;13.10;;;-2.70;99.90;;;;;;4999109;28;20262;-69
2022/12/14 10:38:29;;;;;;;23.43;13.70;;;-2.70;99.90;;;;;;4992866;28;20212;-70
2022/12/14 10:41:38;;;;;;;22.17;12.10;;;-2.70;99.90;;;;;;4994999;28;20212;-68
2022/12/14 10:44:41;;;;;;;21.63;12.27;;;-2.70;99.90;;;;;;4938785;29;20306;-68
2022/12/14 10:47:12;;;;;;;19.37;11.77;;;-2.70;99.90;;;;;;4917820;29;20219;-68
2022/12/14 10:50:01;;;;;;;20.67;12.10;;;-2.70;99.90;;;;;;4985073;28;20263;-71
2022/12/14 10:52:35;;;;;;;23.23;13.00;;;-2.60;99.90;;;;;;4993085;28;20613;-69
2022/12/14 10:55:17;;;;;;;20.53;11.77;;;-2.60;99.90;;;;;;4994831;28;20221;-70
2022/12/14 10:57:43;;;;;;;21.13;12.43;;;-2.60;99.90;;;;;;4999891;28;20268;-69
2022/12/14 11:00:16;;;;;;;22.77;12.80;;;-2.50;99.90;;;;;;4990627;28;20292;-70
2022/12/14 11:02:47;;;;;;;24.20;13.33;;;-2.50;99.90;;;;;;5001217;28;20184;-70
2022/12/14 11:05:39;;;;;;;22.87;12.43;;;-2.40;99.90;;;;;;4992561;28;20681;-70
2022/12/14 11:08:07;;;;;;;20.33;12.17;;;-2.50;99.90;;;;;;4992760;28;20224;-70
2022/12/14 11:10:40;;;;;;;23.00;13.40;;;-2.50;99.90;;;;;;4999860;28;20212;-69
2022/12/14 11:13:11;;;;;;;21.00;12.40;;;-2.40;99.90;;;;;;4990612;28;20210;-70
2022/12/14 11:15:41;;;;;;;23.50;13.00;;;-2.40;99.90;;;;;;4993919;28;20216;-70
2022/12/14 11:18:16;;;;;;;21.37;13.00;;;-2.10;99.90;;;;;;4994788;28;20232;-70
2022/12/14 11:20:57;;;;;;;19.00;11.87;;;-2.00;99.90;;;;;;5000482;28;20229;-70
2022/12/14 11:23:25;;;;;;;27.40;13.13;;;-1.90;99.90;;;;;;4999416;28;20687;-70
2022/12/14 11:26:03;;;;;;;26.43;13.30;;;-1.90;99.90;;;;;;4995564;28;20904;-70
2022/12/14 11:28:53;;;;;;;23.40;13.23;;;-1.90;99.90;;;;;;4996765;28;20255;-70
2022/12/14 11:31:19;;;;;;;24.60;13.20;;;-2.00;99.90;;;;;;4997846;28;20228;-69
2022/12/14 11:33:53;;;;;;;23.30;13.13;;;-2.00;99.90;;;;;;4989408;28;20213;-70
2022/12/14 11:36:24;;;;;;;22.40;12.63;;;-2.00;99.90;;;;;;4997673;28;20568;-70
2022/12/14 11:39:02;;;;;;;22.87;13.60;;;-1.90;99.90;;;;;;4995147;28;20200;-70
2022/12/14 11:41:35;;;;;;;25.63;13.60;;;-2.00;99.90;;;;;;4994883;28;20209;-70
2022/12/14 11:44:23;;;;;;;21.47;12.97;;;-2.10;99.90;;;;;;4994546;28;20279;-70
2022/12/14 11:47:19;;;;;;;24.47;13.83;;;-2.10;99.90;;;;;;5005917;28;20303;-70
2022/12/14 11:49:49;;;;;;;29.60;12.87;;;-2.10;99.90;;;;;;4993106;28;20223;-70
2022/12/14 11:52:24;;;;;;;21.50;12.70;;;-2.10;99.90;;;;;;4994958;28;20210;-70
2022/12/14 11:54:52;;;;;;;22.03;12.60;;;-2.10;99.90;;;;;;4991642;28;20220;-70
2022/12/14 11:57:23;;;;;;;17.77;12.53;;;-2.10;99.90;;;;;;5013858;28;20173;-70
2022/12/14 12:00:05;;;;;;;25.50;14.23;;;-2.00;99.90;;;;;;4987470;28;20205;-69
2022/12/14 12:02:39;;;;;;;22.70;12.87;;;-2.00;99.90;;;;;;4999008;28;20212;-69
2022/12/14 12:05:08;;;;;;;24.90;12.47;;;-2.00;99.90;;;;;;4999501;28;20263;-69
2022/12/14 12:07:55;;;;;;;19.90;12.33;;;-2.00;99.90;;;;;;4998883;28;20205;-70
2022/12/14 12:10:45;;;;;;;27.07;14.03;;;-2.00;99.90;;;;;;5001093;28;20262;-70
2022/12/14 12:13:25;;;;;;;27.43;13.17;;;-2.10;99.90;;;;;;4995091;28;20213;-70
2022/12/14 12:15:55;;;;;;;26.87;13.93;;;-2.00;99.90;;;;;;4997351;28;20707;-70
2022/12/14 12:18:33;;;;;;;25.13;14.07;;;-2.00;99.90;;;;;;5004531;28;20786;-69
2022/12/14 12:21:01;;;;;;;23.83;13.07;;;-2.00;99.90;;;;;;4995207;28;20203;-70
2022/12/14 12:23:36;;;;;;;21.80;12.83;;;-2.00;99.90;;;;;;5001903;28;20703;-70
2022/12/14 12:26:26;;;;;;;25.10;13.90;;;-2.00;99.90;;;;;;4996260;28;20316;-70
2022/12/14 12:29:05;;;;;;;25.13;13.80;;;-1.90;99.90;;;;;;4996008;28;20237;-70
2022/12/14 12:31:39;;;;;;;24.47;13.30;;;-1.90;99.90;;;;;;4999465;28;20679;-69
2022/12/14 12:34:13;;;;;;;22.30;12.77;;;-2.00;99.90;;;;;;4992274;28;20241;-69
2022/12/14 12:36:39;;;;;;;24.73;14.83;;;-2.00;99.90;;;;;;4998992;28;20295;-69
2022/12/14 12:39:14;;;;;;;28.43;15.03;;;-1.90;99.90;;;;;;4999568;28;20289;-70
2022/12/14 12:41:43;;;;;;;19.13;12.20;;;-2.00;99.90;;;;;;5004151;28;20733;-70
2022/12/14 12:44:34;;;;;;;26.73;13.73;;;-2.00;99.90;;;;;;4999500;28;20296;-70
2022/12/14 12:47:26;;;;;;;22.40;12.77;;;-2.10;99.90;;;;;;4997367;28;20582;-69
2022/12/14 12:49:51;;;;;;;21.67;12.80;;;-2.10;99.90;;;;;;4989139;28;20601;-70
2022/12/14 12:52:25;;;;;;;23.87;13.80;;;-2.20;99.90;;;;;;4997694;28;20213;-70
2022/12/14 12:54:57;;;;;;;22.37;12.70;;;-2.20;99.90;;;;;;4993470;28;20226;-69
2022/12/14 12:57:26;;;;;;;22.17;12.30;;;-2.20;99.90;;;;;;5001997;28;20185;-68
2022/12/14 12:59:55;;;;;;;22.30;13.90;;;-2.20;99.90;;;;;;4997074;28;20675;-70
2022/12/14 13:02:31;;;;;;;22.33;12.93;;;-2.10;99.90;;;;;;4996411;28;20595;-70
2022/12/14 13:05:00;;;;;;;21.47;12.37;;;-2.10;99.90;;;;;;4999381;28;20296;-70
2022/12/14 13:07:30;;;;;;;23.27;13.17;;;-2.20;99.90;;;;;;4996017;28;20260;-70
2022/12/14 13:10:02;;;;;;;25.13;14.07;;;-2.10;99.90;;;;;;4999666;28;20216;-69